createdAt,value
2023-05-21T00:00:15.954Z,16.51
2023-05-21T00:02:44.046Z,16.41
2023-05-21T00:05:14.927Z,15.96
2023-05-21T00:07:43.198Z,16.46
2023-05-21T00:10:12.036Z,16.35
2023-05-21T00:12:41.930Z,16.44
2023-05-21T00:15:11.000Z,16.36
2023-05-21T00:17:40.087Z,16.48
2023-05-21T00:20:10.088Z,16.46
2023-05-21T00:22:38.083Z,16.31
2023-05-21T00:25:06.653Z,16.36
2023-05-21T00:27:34.617Z,16.29
2023-05-21T00:30:04.782Z,16.33
2023-05-21T00:32:32.721Z,16.37
2023-05-21T00:35:00.693Z,16.47
2023-05-21T00:37:29.902Z,16.59
2023-05-21T00:39:58.475Z,16.49
2023-05-21T00:42:27.448Z,15.93
2023-05-21T00:44:55.548Z,16.58
2023-05-21T00:47:26.987Z,16.50
2023-05-21T00:49:55.704Z,16.47
2023-05-21T00:52:26.814Z,16.50
2023-05-21T00:54:55.351Z,16.53
2023-05-21T00:57:24.085Z,16.54
2023-05-21T00:59:53.512Z,16.52
2023-05-21T01:02:24.388Z,16.46
2023-05-21T01:04:56.286Z,16.50
2023-05-21T01:07:24.524Z,16.46
2023-05-21T01:09:54.245Z,16.29
2023-05-21T01:12:24.535Z,16.35
2023-05-21T01:14:53.403Z,16.41
2023-05-21T01:17:24.910Z,16.43
2023-05-21T01:19:54.869Z,16.42
2023-05-21T01:22:25.175Z,16.38
2023-05-21T01:24:55.875Z,16.30
2023-05-21T01:27:23.929Z,16.27
2023-05-21T01:29:51.951Z,16.28
2023-05-21T01:32:28.420Z,16.27
2023-05-21T01:35:02.059Z,16.17
2023-05-21T01:37:36.449Z,16.16
2023-05-21T01:40:11.920Z,16.22
2023-05-21T01:42:44.384Z,16.16
2023-05-21T01:45:15.872Z,16.13
2023-05-21T01:47:48.341Z,16.17
2023-05-21T01:50:16.894Z,16.17
2023-05-21T01:52:51.102Z,16.21
2023-05-21T01:55:24.825Z,16.15
2023-05-21T01:57:55.768Z,16.22
2023-05-21T02:00:25.039Z,16.19
2023-05-21T02:02:53.998Z,16.18
2023-05-21T02:05:21.979Z,16.29
2023-05-21T02:07:52.059Z,16.24
2023-05-21T02:10:21.519Z,16.35
2023-05-21T02:12:49.531Z,16.39
2023-05-21T02:15:18.257Z,16.31
2023-05-21T02:17:46.502Z,16.27
2023-05-21T02:20:15.013Z,16.34
2023-05-21T02:22:46.094Z,16.37
2023-05-21T02:25:15.909Z,16.35
2023-05-21T02:27:46.673Z,16.40
2023-05-21T02:30:16.635Z,16.26
2023-05-21T02:32:45.181Z,16.11
2023-05-21T02:35:14.310Z,16.24
2023-05-21T02:37:44.189Z,16.08
2023-05-21T02:40:13.582Z,16.16
2023-05-21T02:42:42.142Z,16.21
2023-05-21T02:45:13.308Z,16.16
2023-05-21T02:47:41.500Z,16.19
2023-05-21T02:50:10.525Z,16.22
2023-05-21T02:52:38.475Z,16.15
2023-05-21T02:55:07.330Z,16.26
2023-05-21T02:57:35.347Z,16.22
2023-05-21T03:00:05.176Z,16.24
2023-05-21T03:02:34.659Z,16.14
2023-05-21T03:05:03.012Z,16.01
2023-05-21T03:07:30.989Z,16.08
2023-05-21T03:09:59.429Z,16.16
2023-05-21T03:12:27.425Z,16.17
2023-05-21T03:14:56.471Z,16.08
2023-05-21T03:17:24.502Z,16.11
2023-05-21T03:19:54.811Z,16.05
2023-05-21T03:22:22.817Z,16.08
2023-05-21T03:24:50.890Z,15.78
2023-05-21T03:27:18.897Z,15.85
2023-05-21T03:29:46.882Z,15.78
2023-05-21T03:32:15.127Z,15.97
2023-05-21T03:34:43.227Z,15.97
2023-05-21T03:37:12.541Z,15.96
2023-05-21T03:39:40.576Z,15.99
2023-05-21T03:42:08.510Z,15.98
2023-05-21T03:44:36.504Z,15.99
2023-05-21T03:47:04.444Z,16.01
2023-05-21T03:49:32.443Z,16.00
2023-05-21T03:52:00.376Z,16.08
2023-05-21T03:54:29.695Z,16.08
2023-05-21T03:56:57.598Z,16.15
2023-05-21T03:59:25.495Z,16.13
2023-05-21T04:01:53.435Z,16.25
2023-05-21T04:04:21.411Z,16.14
2023-05-21T04:06:49.769Z,15.95
2023-05-21T04:09:17.733Z,15.79
2023-05-21T04:11:47.545Z,15.99
2023-05-21T04:14:15.667Z,16.03
2023-05-21T04:16:44.932Z,16.16
2023-05-21T04:19:12.961Z,16.27
2023-05-21T04:21:40.984Z,16.08
2023-05-21T04:24:08.996Z,15.62
2023-05-21T04:26:37.080Z,15.75
2023-05-21T04:29:06.419Z,15.85
2023-05-21T04:31:34.389Z,15.98
2023-05-21T04:34:02.318Z,15.92
2023-05-21T04:36:30.388Z,16.05
2023-05-21T04:38:58.398Z,16.02
2023-05-21T04:41:26.323Z,16.01
2023-05-21T04:43:55.377Z,16.05
2023-05-21T04:46:25.837Z,16.25
2023-05-21T04:48:55.156Z,16.40
2023-05-21T04:51:24.790Z,16.17
2023-05-21T04:53:54.027Z,16.30
2023-05-21T04:56:23.018Z,16.20
2023-05-21T04:58:51.198Z,16.39
2023-05-21T05:01:19.936Z,16.37
2023-05-21T05:03:49.411Z,16.23
2023-05-21T05:06:18.008Z,16.26
2023-05-21T05:08:47.318Z,16.39
2023-05-21T05:11:15.357Z,16.22
2023-05-21T05:13:43.302Z,16.13
2023-05-21T05:16:13.055Z,16.11
2023-05-21T05:18:41.338Z,16.30
2023-05-21T05:21:10.743Z,16.37
2023-05-21T05:23:38.781Z,16.46
2023-05-21T05:26:06.820Z,16.47
2023-05-21T05:28:34.809Z,16.48
2023-05-21T05:31:02.816Z,16.56
2023-05-21T05:33:30.958Z,16.60
2023-05-21T05:35:58.985Z,16.51
2023-05-21T05:38:28.543Z,16.25
2023-05-21T05:40:56.458Z,16.13
2023-05-21T05:43:26.415Z,15.96
2023-05-21T05:45:54.452Z,15.79
2023-05-21T05:48:22.502Z,15.71
2023-05-21T05:50:50.490Z,15.85
2023-05-21T05:53:18.444Z,15.86
2023-05-21T05:55:47.831Z,15.80
2023-05-21T05:58:15.855Z,15.97
2023-05-21T06:00:43.806Z,16.26
2023-05-21T06:03:12.291Z,16.42
2023-05-21T06:05:40.693Z,16.39
2023-05-21T06:08:08.952Z,16.42
2023-05-21T06:10:36.917Z,16.63
2023-05-21T06:13:06.359Z,16.57
2023-05-21T06:15:34.910Z,16.72
2023-05-21T06:18:03.066Z,16.74
2023-05-21T06:20:31.106Z,16.42
2023-05-21T06:22:59.026Z,16.60
2023-05-21T06:25:27.147Z,16.92
2023-05-21T06:27:55.130Z,16.97
2023-05-21T06:30:24.479Z,16.92
2023-05-21T06:32:52.465Z,16.95
2023-05-21T06:35:20.552Z,16.96
2023-05-21T06:37:48.796Z,17.06
2023-05-21T06:40:16.993Z,17.09
2023-05-21T06:42:45.056Z,17.12
2023-05-21T06:45:13.707Z,17.14
2023-05-21T06:47:43.029Z,17.22
2023-05-21T06:50:11.528Z,17.24
2023-05-21T06:52:39.529Z,17.30
2023-05-21T06:55:08.209Z,17.37
2023-05-21T06:57:36.148Z,17.34
2023-05-21T07:00:04.258Z,17.33
2023-05-21T07:02:32.298Z,17.43
2023-05-21T07:05:01.835Z,17.42
2023-05-21T07:07:29.865Z,17.43
2023-05-21T07:09:57.865Z,17.47
2023-05-21T07:12:25.789Z,17.45
2023-05-21T07:14:53.760Z,17.52
2023-05-21T07:17:21.844Z,17.59
2023-05-21T07:19:49.851Z,17.69
2023-05-21T07:22:19.154Z,17.77
2023-05-21T07:24:47.151Z,17.85
2023-05-21T07:27:25.223Z,17.92
2023-05-21T07:29:53.928Z,17.91
2023-05-21T07:32:22.001Z,17.99
2023-05-21T07:34:50.555Z,18.06
2023-05-21T07:37:21.117Z,18.12
2023-05-21T07:39:49.243Z,18.14
2023-05-21T07:42:17.164Z,18.20
2023-05-21T07:44:45.136Z,18.33
2023-05-21T07:47:13.116Z,18.46
2023-05-21T07:49:41.141Z,18.61
2023-05-21T07:52:09.126Z,18.75
2023-05-21T07:54:38.443Z,18.87
2023-05-21T07:57:06.927Z,18.84
2023-05-21T07:59:34.936Z,18.96
2023-05-21T08:02:02.852Z,18.95
2023-05-21T08:04:30.848Z,18.94
2023-05-21T08:06:58.876Z,18.97
2023-05-21T08:09:26.907Z,19.13
2023-05-21T08:11:56.179Z,19.29
2023-05-21T08:14:24.089Z,19.27
2023-05-21T08:16:52.051Z,19.41
2023-05-21T08:19:20.115Z,19.52
2023-05-21T08:21:49.694Z,19.53
2023-05-21T08:24:19.364Z,19.62
2023-05-21T08:26:49.577Z,19.76
2023-05-21T08:29:19.117Z,19.86
2023-05-21T08:31:47.048Z,19.94
2023-05-21T08:34:15.035Z,19.94
2023-05-21T08:36:43.346Z,19.87
2023-05-21T08:39:11.345Z,20.00
2023-05-21T08:41:41.639Z,19.95
2023-05-21T08:44:12.837Z,20.19
2023-05-21T08:46:43.352Z,20.23
2023-05-21T08:49:14.325Z,20.11
2023-05-21T08:51:43.066Z,19.98
2023-05-21T08:54:11.633Z,19.92
2023-05-21T08:56:45.657Z,19.76
2023-05-21T08:59:14.093Z,19.83
2023-05-21T09:01:44.446Z,19.94
2023-05-21T09:04:21.228Z,20.02
2023-05-21T09:06:50.058Z,19.94
2023-05-21T09:09:26.247Z,19.78
2023-05-21T09:11:54.492Z,20.01
2023-05-21T09:14:24.388Z,20.17
2023-05-21T09:16:53.831Z,20.32
2023-05-21T09:19:22.155Z,20.30
2023-05-21T09:21:52.643Z,20.50
2023-05-21T09:24:22.777Z,20.53
2023-05-21T09:26:51.347Z,20.58
2023-05-21T09:29:19.761Z,20.62
2023-05-21T09:31:47.933Z,20.56
2023-05-21T09:34:17.472Z,20.64
2023-05-21T09:36:45.380Z,20.63
2023-05-21T09:39:16.592Z,20.61
2023-05-21T09:41:45.017Z,20.57
2023-05-21T09:44:13.627Z,20.61
2023-05-21T09:46:42.616Z,20.64
2023-05-21T09:49:24.200Z,20.66
2023-05-21T09:51:55.862Z,20.70
2023-05-21T09:54:24.450Z,20.55
2023-05-21T09:56:53.476Z,20.40
2023-05-21T09:59:22.494Z,20.46
2023-05-21T10:01:52.613Z,20.53
2023-05-21T10:04:24.348Z,20.46
2023-05-21T10:06:53.839Z,20.46
2023-05-21T10:09:22.441Z,20.33
2023-05-21T10:11:53.335Z,20.23
2023-05-21T10:14:22.880Z,20.20
2023-05-21T10:16:53.700Z,20.24
2023-05-21T10:19:28.193Z,20.11
2023-05-21T10:21:57.286Z,20.21
2023-05-21T10:24:26.836Z,20.16
2023-05-21T10:26:55.323Z,20.22
2023-05-21T10:29:24.561Z,20.28
2023-05-21T10:31:54.015Z,20.34
2023-05-21T10:34:25.080Z,20.36
2023-05-21T10:36:55.789Z,20.47
2023-05-21T10:39:26.583Z,20.63
2023-05-21T10:42:03.476Z,20.62
2023-05-21T10:44:43.926Z,20.92
2023-05-21T10:47:40.322Z,21.03
2023-05-21T10:50:34.463Z,21.28
2023-05-21T10:53:14.503Z,21.40
2023-05-21T10:56:00.432Z,21.33
2023-05-21T10:58:52.424Z,21.17
2023-05-21T11:01:20.828Z,21.03
2023-05-21T11:03:49.705Z,20.90
2023-05-21T11:06:27.155Z,21.02
2023-05-21T11:08:55.942Z,21.22
2023-05-21T11:11:44.115Z,21.64
2023-05-21T11:14:32.836Z,21.70
2023-05-21T11:17:01.257Z,21.45
2023-05-21T11:19:38.598Z,21.23
2023-05-21T11:22:21.906Z,21.16
2023-05-21T11:24:51.381Z,20.87
2023-05-21T11:27:34.545Z,20.88
2023-05-21T11:30:06.680Z,20.47
2023-05-21T11:32:38.384Z,20.39
2023-05-21T11:35:07.774Z,20.41
2023-05-21T11:37:40.642Z,20.53
2023-05-21T11:40:26.099Z,20.47
2023-05-21T11:42:55.877Z,20.38
2023-05-21T11:45:26.340Z,20.42
2023-05-21T11:47:54.327Z,20.33
2023-05-21T11:50:22.524Z,20.12
2023-05-21T11:52:52.117Z,20.14
2023-05-21T11:55:23.944Z,20.01
2023-05-21T11:57:54.692Z,20.00
2023-05-21T12:00:23.113Z,19.90
2023-05-21T12:02:54.425Z,19.99
2023-05-21T12:05:23.360Z,20.01
2023-05-21T12:07:54.658Z,19.84
2023-05-21T12:10:23.962Z,19.73
2023-05-21T12:12:55.464Z,19.59
2023-05-21T12:15:25.963Z,19.39
2023-05-21T12:17:54.254Z,19.56
2023-05-21T12:20:23.296Z,19.64
2023-05-21T12:22:52.745Z,19.67
2023-05-21T12:25:21.308Z,19.65
2023-05-21T12:27:52.667Z,19.74
2023-05-21T12:30:21.304Z,19.77
2023-05-21T12:32:50.228Z,19.73
2023-05-21T12:35:25.053Z,19.69
2023-05-21T12:37:54.526Z,19.73
2023-05-21T12:40:22.790Z,19.75
2023-05-21T12:42:51.822Z,19.82
2023-05-21T12:45:22.710Z,19.87
2023-05-21T12:47:56.187Z,19.97
2023-05-21T12:50:24.730Z,19.89
2023-05-21T12:52:57.134Z,20.13
2023-05-21T12:55:26.506Z,20.28
2023-05-21T12:58:03.767Z,20.41
2023-05-21T13:00:33.323Z,20.54
2023-05-21T13:03:02.071Z,20.58
2023-05-21T13:05:30.298Z,20.65
2023-05-21T13:07:59.792Z,20.65
2023-05-21T13:10:27.801Z,20.66
2023-05-21T13:12:55.801Z,20.74
2023-05-21T13:15:23.845Z,20.86
2023-05-21T13:17:53.211Z,20.81
2023-05-21T13:20:26.583Z,20.73
2023-05-21T13:22:54.987Z,20.82
2023-05-21T13:25:28.803Z,20.81
2023-05-21T13:27:58.258Z,20.87
2023-05-21T13:30:26.354Z,20.94
2023-05-21T13:32:54.684Z,20.99
2023-05-21T13:35:23.125Z,20.95
2023-05-21T13:37:51.219Z,20.92
2023-05-21T13:40:19.360Z,20.97
2023-05-21T13:42:49.997Z,20.97
2023-05-21T13:45:21.641Z,20.99
2023-05-21T13:47:50.184Z,20.93
2023-05-21T13:50:18.594Z,20.92
2023-05-21T13:52:47.189Z,20.91
2023-05-21T13:55:15.978Z,20.92
2023-05-21T13:57:44.693Z,20.92
2023-05-21T14:00:16.120Z,20.97
2023-05-21T14:02:45.049Z,20.92
2023-05-21T14:05:13.537Z,20.90
2023-05-21T14:07:42.166Z,20.83
2023-05-21T14:10:11.237Z,20.84
2023-05-21T14:12:40.746Z,20.89
2023-05-21T14:15:09.776Z,20.84
2023-05-21T14:17:40.611Z,20.82
2023-05-21T14:20:10.063Z,20.82
2023-05-21T14:22:38.629Z,20.72
2023-05-21T14:25:07.442Z,20.81
2023-05-21T14:27:37.776Z,20.56
2023-05-21T14:30:06.567Z,20.44
2023-05-21T14:32:34.589Z,20.44
2023-05-21T14:35:04.290Z,20.50
2023-05-21T14:37:32.339Z,20.26
2023-05-21T14:40:00.491Z,20.44
2023-05-21T14:42:28.489Z,20.30
2023-05-21T14:44:56.541Z,20.64
2023-05-21T14:47:24.526Z,20.75
2023-05-21T14:49:52.513Z,20.78
2023-05-21T14:52:21.771Z,20.83
2023-05-21T14:54:49.793Z,20.77
2023-05-21T14:57:17.712Z,20.74
2023-05-21T14:59:45.795Z,20.63
2023-05-21T15:02:14.071Z,20.75
2023-05-21T15:04:42.090Z,20.72
2023-05-21T15:07:10.135Z,20.77
2023-05-21T15:09:39.490Z,20.83
2023-05-21T15:12:07.625Z,20.67
2023-05-21T15:14:36.010Z,20.67
2023-05-21T15:17:04.005Z,20.56
2023-05-21T15:19:32.021Z,20.62
2023-05-21T15:21:59.948Z,20.43
2023-05-21T15:24:27.941Z,20.46
2023-05-21T15:26:57.158Z,20.56
2023-05-21T15:29:25.101Z,20.56
2023-05-21T15:31:53.040Z,20.55
2023-05-21T15:34:21.093Z,20.50
2023-05-21T15:36:51.385Z,20.46
2023-05-21T15:39:19.402Z,20.33
2023-05-21T15:41:47.338Z,20.33
2023-05-21T15:44:16.898Z,20.35
2023-05-21T15:46:44.853Z,19.97
2023-05-21T15:49:12.946Z,20.09
2023-05-21T15:51:40.943Z,20.06
2023-05-21T15:54:08.820Z,20.03
2023-05-21T15:56:36.908Z,20.00
2023-05-21T15:59:04.794Z,19.87
2023-05-21T16:01:34.587Z,19.48
2023-05-21T16:04:03.271Z,19.49
2023-05-21T16:06:31.650Z,19.64
2023-05-21T16:08:59.679Z,19.54
2023-05-21T16:11:28.159Z,19.60
2023-05-21T16:13:56.186Z,19.56
2023-05-21T16:16:24.882Z,19.44
2023-05-21T16:18:54.985Z,19.46
2023-05-21T16:21:22.949Z,19.46
2023-05-21T16:23:50.908Z,19.41
2023-05-21T16:26:18.950Z,19.46
2023-05-21T16:28:46.830Z,19.43
2023-05-21T16:31:14.847Z,19.62
2023-05-21T16:33:42.965Z,19.52
2023-05-21T16:36:12.260Z,19.52
2023-05-21T16:38:40.220Z,19.61
2023-05-21T16:41:08.207Z,19.45
2023-05-21T16:43:36.382Z,19.42
2023-05-21T16:46:04.500Z,19.50
2023-05-21T16:48:32.797Z,19.69
2023-05-21T16:51:01.311Z,19.71
2023-05-21T16:53:30.650Z,19.71
2023-05-21T16:55:58.929Z,19.66
2023-05-21T16:58:27.045Z,19.71
2023-05-21T17:00:54.996Z,19.70
2023-05-21T17:03:23.048Z,19.65
2023-05-21T17:05:51.278Z,19.68
2023-05-21T17:08:19.419Z,19.63
2023-05-21T17:10:48.728Z,19.59
2023-05-21T17:13:22.029Z,19.58
2023-05-21T17:15:51.723Z,19.49
2023-05-21T17:18:19.857Z,19.39
2023-05-21T17:20:47.883Z,19.44
2023-05-21T17:23:16.028Z,19.41
2023-05-21T17:25:44.152Z,19.40
2023-05-21T17:28:13.506Z,19.31
2023-05-21T17:30:41.641Z,19.34
2023-05-21T17:33:10.409Z,19.32
2023-05-21T17:35:39.025Z,19.31
2023-05-21T17:38:07.226Z,19.24
2023-05-21T17:40:35.197Z,19.14
2023-05-21T17:43:04.309Z,19.12
2023-05-21T17:45:33.673Z,19.18
2023-05-21T17:48:01.758Z,19.20
2023-05-21T17:50:29.820Z,19.15
2023-05-21T17:52:57.768Z,19.21
2023-05-21T17:55:25.727Z,19.25
2023-05-21T17:57:53.700Z,19.06
2023-05-21T18:00:22.276Z,19.14
2023-05-21T18:02:51.737Z,19.21
2023-05-21T18:05:19.881Z,19.17
2023-05-21T18:07:47.866Z,18.85
2023-05-21T18:10:16.238Z,19.04
2023-05-21T18:12:46.175Z,18.98
2023-05-21T18:15:15.262Z,18.56
2023-05-21T18:17:43.216Z,18.32
2023-05-21T18:20:14.151Z,18.16
2023-05-21T18:22:42.158Z,17.84
2023-05-21T18:25:10.839Z,17.71
2023-05-21T18:27:38.793Z,17.81
2023-05-21T18:30:08.332Z,17.90
2023-05-21T18:32:38.593Z,17.74
2023-05-21T18:35:11.971Z,17.49
2023-05-21T18:37:44.634Z,17.55
2023-05-21T18:40:13.857Z,17.34
2023-05-21T18:42:42.084Z,17.33
2023-05-21T18:45:11.326Z,17.38
2023-05-21T18:47:40.503Z,17.25
2023-05-21T18:50:10.269Z,17.25
2023-05-21T18:52:38.260Z,17.20
2023-05-21T18:55:08.845Z,17.25
2023-05-21T18:57:38.130Z,17.23
2023-05-21T19:00:09.634Z,17.25
2023-05-21T19:02:37.833Z,17.26
2023-05-21T19:05:06.747Z,17.21
2023-05-21T19:07:34.882Z,17.12
2023-05-21T19:10:02.822Z,17.12
2023-05-21T19:12:32.410Z,17.00
2023-05-21T19:15:00.450Z,16.94
2023-05-21T19:17:28.408Z,17.03
2023-05-21T19:19:56.832Z,17.01
2023-05-21T19:22:25.185Z,17.01
2023-05-21T19:24:53.252Z,17.12
2023-05-21T19:27:21.806Z,17.08
2023-05-21T19:29:51.758Z,17.01
2023-05-21T19:32:20.867Z,17.02
2023-05-21T19:34:48.794Z,17.06
2023-05-21T19:37:16.891Z,16.89
2023-05-21T19:39:49.568Z,17.01
2023-05-21T19:42:18.464Z,17.04
2023-05-21T19:44:46.661Z,17.04
2023-05-21T19:47:16.289Z,17.09
2023-05-21T19:49:44.274Z,16.98
2023-05-21T19:52:12.455Z,16.86
2023-05-21T19:54:40.544Z,17.09
2023-05-21T19:57:10.895Z,16.94
2023-05-21T19:59:40.168Z,16.95
2023-05-21T20:02:08.296Z,17.03
2023-05-21T20:04:37.621Z,17.09
2023-05-21T20:07:06.222Z,17.13
2023-05-21T20:09:34.200Z,17.09
2023-05-21T20:12:02.226Z,17.15
2023-05-21T20:14:33.446Z,17.08
2023-05-21T20:17:01.792Z,17.02
2023-05-21T20:19:30.524Z,17.10
2023-05-21T20:22:00.282Z,16.98
2023-05-21T20:24:28.312Z,16.92
2023-05-21T20:26:56.268Z,16.93
2023-05-21T20:29:24.280Z,16.91
2023-05-21T20:31:52.206Z,16.85
2023-05-21T20:34:21.649Z,16.95
2023-05-21T20:36:49.660Z,16.81
2023-05-21T20:39:21.940Z,16.66
2023-05-21T20:41:49.924Z,16.73
2023-05-21T20:44:18.925Z,16.67
2023-05-21T20:46:47.805Z,16.69
2023-05-21T20:49:17.742Z,16.72
2023-05-21T20:51:45.852Z,16.71
2023-05-21T20:54:14.143Z,16.60
2023-05-21T20:56:45.135Z,16.64
2023-05-21T20:59:13.061Z,16.65
2023-05-21T21:01:41.448Z,16.57
2023-05-21T21:04:10.026Z,16.58
2023-05-21T21:06:38.464Z,16.54
2023-05-21T21:09:06.554Z,16.42
2023-05-21T21:11:34.633Z,16.53
2023-05-21T21:14:03.985Z,16.51
2023-05-21T21:16:32.108Z,16.56
2023-05-21T21:19:00.129Z,16.46
2023-05-21T21:21:28.636Z,16.51
2023-05-21T21:23:56.649Z,16.57
2023-05-21T21:26:24.996Z,16.43
2023-05-21T21:28:52.943Z,16.49
2023-05-21T21:31:22.436Z,16.48
2023-05-21T21:33:50.519Z,16.56
2023-05-21T21:36:18.550Z,16.49
2023-05-21T21:38:46.497Z,16.55
2023-05-21T21:41:14.573Z,16.44
2023-05-21T21:43:42.568Z,16.40
2023-05-21T21:46:10.563Z,16.45
2023-05-21T21:48:39.914Z,16.43
2023-05-21T21:51:09.005Z,16.57
2023-05-21T21:53:36.935Z,16.37
2023-05-21T21:56:05.128Z,16.06
2023-05-21T21:58:33.061Z,16.06
2023-05-21T22:01:01.248Z,15.77
2023-05-21T22:03:29.713Z,15.79
2023-05-21T22:05:59.066Z,15.93
2023-05-21T22:08:28.707Z,16.00
2023-05-21T22:10:56.761Z,15.73
2023-05-21T22:13:24.779Z,15.65
2023-05-21T22:15:52.736Z,15.71
2023-05-21T22:18:28.451Z,15.67
2023-05-21T22:21:01.984Z,15.52
2023-05-21T22:23:48.367Z,15.43
2023-05-21T22:26:16.301Z,15.49
2023-05-21T22:28:44.181Z,15.67
2023-05-21T22:31:12.130Z,15.60
2023-05-21T22:33:40.344Z,15.89
2023-05-21T22:36:10.485Z,15.84
2023-05-21T22:38:38.865Z,15.97
2023-05-21T22:41:06.885Z,15.96
2023-05-21T22:43:35.719Z,16.11
2023-05-21T22:46:03.785Z,16.06
2023-05-21T22:48:31.732Z,16.07
2023-05-21T22:51:01.674Z,16.08
2023-05-21T22:53:32.188Z,16.05
2023-05-21T22:56:00.150Z,16.15
2023-05-21T22:58:28.035Z,16.08
2023-05-21T23:00:56.050Z,16.15
2023-05-21T23:03:23.960Z,16.24
2023-05-21T23:05:51.918Z,16.24
2023-05-21T23:08:19.988Z,16.25
2023-05-21T23:10:49.327Z,16.32
2023-05-21T23:13:17.266Z,16.31
2023-05-21T23:15:45.806Z,16.30
2023-05-21T23:18:13.772Z,16.25
2023-05-21T23:20:42.242Z,16.29
2023-05-21T23:23:10.613Z,16.24
2023-05-21T23:25:38.597Z,16.28
2023-05-21T23:28:07.987Z,16.21
2023-05-21T23:30:36.247Z,16.28
2023-05-21T23:33:04.636Z,16.33
2023-05-21T23:35:32.616Z,16.25
2023-05-21T23:38:01.140Z,16.19
2023-05-21T23:40:29.110Z,16.28
2023-05-21T23:42:57.108Z,16.12
2023-05-21T23:45:26.465Z,16.19
2023-05-21T23:47:54.466Z,16.22
2023-05-21T23:50:22.500Z,16.17
2023-05-21T23:52:50.481Z,16.05
2023-05-21T23:55:18.632Z,16.08
2023-05-21T23:57:46.671Z,16.15
